Time;durP1;ratioP1;P1;durP2;ratioP2;P2;SDS_P1;SDS_P2;PMS_P1;PMS_P2;Temp;Humidity;BMP_temperature;BMP_pressure;BME280_temperature;BME280_humidity;BME280_pressure;Samples;Min_cycle;Max_cycle;Signal;HPM_P1;HPM_P2
2021/07/23 00:00:56;;;;;;;22.07;8.60;;;;;;;18.89;60.08;99215.45;125659;1096;103007;-78
2021/07/23 00:03:24;;;;;;;20.23;8.90;;;;;;;18.88;59.99;99216.46;125531;1096;102943;-77
2021/07/23 00:05:53;;;;;;;20.07;8.70;;;;;;;18.86;60.08;99220.34;125491;1094;103041;-77
2021/07/23 00:08:22;;;;;;;19.50;8.80;;;;;;;18.83;60.08;99216.09;125475;1095;103036;-77
2021/07/23 00:10:50;;;;;;;18.10;8.20;;;;;;;18.80;60.21;99212.89;125464;1096;102944;-78
2021/07/23 00:13:19;;;;;;;19.73;8.53;;;;;;;18.78;60.25;99212.21;125465;1096;103015;-77
2021/07/23 00:15:47;;;;;;;23.27;9.10;;;;;;;18.76;60.22;99209.66;125454;1097;103007;-78
2021/07/23 00:18:16;;;;;;;22.90;9.00;;;;;;;18.75;60.33;99211.53;125469;1096;103012;-77
2021/07/23 00:20:49;;;;;;;18.60;8.53;;;;;;;18.71;60.29;99220.11;125393;1096;102914;-77
2021/07/23 00:23:22;;;;;;;;;;;;;;;18.69;60.64;99214.03;125505;1096;102942;-78
2021/07/23 00:25:55;;;;;;;19.27;7.93;;;;;;;18.66;60.35;99212.48;125453;1096;103047;-77
2021/07/23 00:28:23;;;;;;;;;;;;;;;18.64;60.89;99210.97;125450;1095;102933;-77
2021/07/23 00:30:52;;;;;;;21.80;9.23;;;;;;;18.63;60.46;99212.80;125503;1097;103047;-78
2021/07/23 00:33:20;;;;;;;19.77;9.07;;;;;;;18.63;60.41;99209.28;125453;1096;103167;-77
2021/07/23 00:35:49;;;;;;;19.87;7.50;;;;;;;18.62;60.80;99218.36;125498;1097;102955;-79
2021/07/23 00:38:27;;;;;;;;;;;;;;;18.61;60.82;99212.11;125451;1095;103036;-79
2021/07/23 00:40:55;;;;;;;19.33;8.57;;;;;;;18.62;60.61;99215.67;125469;1096;103096;-79
2021/07/23 00:43:29;;;;;;;19.73;9.30;;;;;;;18.62;60.63;99218.36;125466;1097;103068;-80
2021/07/23 00:46:02;;;;;;;23.10;8.90;;;;;;;18.61;60.67;99220.20;125497;1096;102946;-79
2021/07/23 00:48:35;;;;;;;21.00;9.63;;;;;;;18.62;60.83;99219.20;125480;1096;103038;-79
2021/07/23 00:51:04;;;;;;;24.07;12.17;;;;;;;18.63;60.88;99222.75;125442;1096;103067;-79
2021/07/23 00:53:37;;;;;;;21.87;9.90;;;;;;;18.63;61.05;99220.88;125510;1096;102943;-80
2021/07/23 00:56:05;;;;;;;19.57;8.23;;;;;;;18.64;61.42;99219.05;125481;1097;103038;-78
2021/07/23 00:58:34;;;;;;;19.63;9.13;;;;;;;18.63;60.91;99222.75;125770;1097;102924;-79
2021/07/23 01:01:04;;;;;;;20.63;9.17;;;;;;;18.63;61.12;99220.05;125506;1095;103032;-78
2021/07/23 01:03:35;;;;;;;21.57;8.63;;;;;;;18.62;61.17;99216.50;125402;1097;104628;-77
2021/07/23 01:06:05;;;;;;;22.10;9.10;;;;;;;18.61;61.16;99217.50;125771;1096;102941;-77
2021/07/23 01:08:33;;;;;;;21.00;8.87;;;;;;;18.59;60.96;99217.68;125468;1096;103040;-78
2021/07/23 01:11:01;;;;;;;20.17;9.20;;;;;;;18.59;61.22;99217.68;125342;1096;103193;-78
2021/07/23 01:13:35;;;;;;;20.47;9.33;;;;;;;18.59;61.15;99219.52;125458;1097;102965;-78
2021/07/23 01:16:05;;;;;;;22.37;9.47;;;;;;;18.57;61.42;99210.74;125476;1096;103046;-78
2021/07/23 01:18:38;;;;;;;19.17;8.97;;;;;;;18.58;61.13;99215.13;125507;1096;103041;-78
2021/07/23 01:21:11;;;;;;;18.47;9.17;;;;;;;18.53;61.45;99207.54;125421;1095;103035;-77
2021/07/23 01:23:41;;;;;;;23.57;10.10;;;;;;;18.52;61.65;99211.23;125552;1096;102916;-78
2021/07/23 01:26:10;;;;;;;21.37;9.17;;;;;;;18.52;61.78;99210.41;125538;1096;102948;-79
2021/07/23 01:28:38;;;;;;;22.10;8.83;;;;;;;18.51;61.62;99214.10;125487;1097;103090;-78
2021/07/23 01:31:09;;;;;;;19.67;8.70;;;;;;;18.49;61.35;99210.72;125480;1096;102916;-77
2021/07/23 01:33:38;;;;;;;20.93;9.90;;;;;;;18.47;61.40;99204.65;125375;1097;102964;-77
2021/07/23 01:36:11;;;;;;;22.10;9.13;;;;;;;18.44;61.77;99200.41;125483;1096;103005;-78
2021/07/23 01:38:47;;;;;;;19.80;9.00;;;;;;;18.43;61.86;99209.48;125553;1096;102933;-78
2021/07/23 01:41:21;;;;;;;20.07;9.10;;;;;;;18.39;61.87;99206.28;125467;1096;102924;-80
2021/07/23 01:43:50;;;;;;;23.53;9.33;;;;;;;18.39;61.77;99202.73;125482;1096;103127;-76
2021/07/23 01:46:18;;;;;;;21.90;9.47;;;;;;;18.38;61.61;99204.59;125500;1096;102997;-80
2021/07/23 01:48:49;;;;;;;21.23;9.63;;;;;;;18.37;62.13;99210.98;125445;1096;102916;-79
2021/07/23 01:51:23;;;;;;;22.07;9.37;;;;;;;18.37;62.02;99204.73;125451;1096;103060;-78
2021/07/23 01:53:56;;;;;;;21.30;8.97;;;;;;;18.36;62.29;99206.59;125457;1096;103143;-79
2021/07/23 01:56:25;;;;;;;20.77;9.57;;;;;;;18.36;61.74;99203.91;125492;1097;103003;-79
2021/07/23 01:59:01;;;;;;;21.10;9.53;;;;;;;18.36;62.20;99203.05;125493;1096;103041;-79
2021/07/23 02:01:30;;;;;;;20.63;9.50;;;;;;;18.34;62.20;99194.31;125431;1096;103006;-79
2021/07/23 02:04:00;;;;;;;21.27;9.83;;;;;;;18.32;61.88;99197.14;125443;1097;103097;-79
2021/07/23 02:06:28;;;;;;;20.10;9.83;;;;;;;18.32;62.22;99199.01;125456;1096;102983;-79
2021/07/23 02:08:56;;;;;;;21.47;9.33;;;;;;;18.29;62.40;99200.16;125480;1095;103001;-79
2021/07/23 02:11:27;;;;;;;23.75;10.70;;;;;;;18.26;62.52;99195.95;125435;1096;103007;-79
2021/07/23 02:14:06;;;;;;;20.15;9.40;;;;;;;18.24;62.20;99197.95;125473;1097;102922;-80
2021/07/23 02:16:41;;;;;;;22.23;10.23;;;;;;;18.22;62.44;99199.95;125478;1096;102920;-81
2021/07/23 02:19:10;;;;;;;20.53;9.10;;;;;;;18.21;62.13;99194.71;125485;1096;102923;-78
2021/07/23 02:21:38;;;;;;;23.03;10.10;;;;;;;18.19;62.28;99192.19;125483;1096;102944;-78
2021/07/23 02:24:07;;;;;;;24.67;10.40;;;;;;;18.18;62.46;99190.50;125470;1095;103022;-78
2021/07/23 02:26:40;;;;;;;19.43;9.00;;;;;;;18.18;62.67;99192.33;125420;1097;103070;-78
2021/07/23 02:29:08;;;;;;;22.40;9.60;;;;;;;18.15;62.52;99188.95;125441;1094;101781;-78
2021/07/23 02:31:37;;;;;;;19.23;9.33;;;;;;;18.17;62.38;99196.88;126523;1096;103068;-80
2021/07/23 02:34:06;;;;;;;20.90;9.83;;;;;;;18.17;62.98;99186.12;126103;1096;102938;-79
2021/07/23 02:36:36;;;;;;;21.07;9.53;;;;;;;18.15;62.51;99197.02;125503;1096;103109;-78
2021/07/23 02:39:05;;;;;;;20.07;10.50;;;;;;;18.15;62.40;99186.26;125392;1095;103418;-79
2021/07/23 02:41:34;;;;;;;21.90;9.70;;;;;;;18.16;62.69;99189.81;125540;1096;103060;-77
2021/07/23 02:44:02;;;;;;;19.93;9.33;;;;;;;18.15;62.91;99186.26;125484;1097;103013;-78
2021/07/23 02:46:32;;;;;;;21.30;9.55;;;;;;;18.14;62.97;99184.56;125517;1097;103015;-78
2021/07/23 02:49:00;;;;;;;18.77;8.77;;;;;;;18.12;62.79;99185.73;125483;1097;102929;-79
2021/07/23 02:51:34;;;;;;;20.52;9.28;;;;;;;18.11;63.16;99186.74;125489;1096;103026;-79
2021/07/23 02:54:02;;;;;;;22.35;9.85;;;;;;;18.07;62.80;99180.84;125484;1096;103093;-78
2021/07/23 02:56:30;;;;;;;23.27;9.83;;;;;;;18.07;62.83;99183.53;125399;1095;102945;-78
2021/07/23 02:58:59;;;;;;;22.27;9.70;;;;;;;18.07;62.98;99178.16;125479;1097;103004;-78
2021/07/23 03:01:28;;;;;;;21.23;9.40;;;;;;;18.07;63.19;99178.16;125502;1096;102925;-78
2021/07/23 03:04:00;;;;;;;20.23;9.90;;;;;;;18.08;63.34;99176.29;125436;1096;102942;-78
2021/07/23 03:06:29;;;;;;;24.40;9.53;;;;;;;18.08;63.16;99176.29;125435;1096;103076;-78
2021/07/23 03:08:58;;;;;;;20.93;8.77;;;;;;;18.08;63.10;99174.46;125431;1095;103014;-78
2021/07/23 03:11:28;;;;;;;19.53;8.87;;;;;;;18.09;63.38;99175.29;125409;1096;102916;-78
2021/07/23 03:13:59;;;;;;;19.70;8.97;;;;;;;18.09;63.51;99176.15;125502;1096;103183;-77
2021/07/23 03:16:27;;;;;;;20.43;9.53;;;;;;;18.11;63.51;99173.28;125436;1097;103015;-78
2021/07/23 03:18:56;;;;;;;22.53;10.37;;;;;;;18.11;63.47;99173.28;125377;1095;102994;-76
2021/07/23 03:21:24;;;;;;;20.67;9.80;;;;;;;18.12;63.57;99178.53;125413;1094;102941;-79
2021/07/23 03:23:52;;;;;;;19.63;9.50;;;;;;;18.13;63.42;99174.84;126339;1095;101373;-79
2021/07/23 03:26:21;;;;;;;18.30;8.50;;;;;;;18.14;63.42;99179.19;125391;1097;103055;-81
2021/07/23 03:28:54;;;;;;;;;;;;;;;18.13;63.99;99171.28;125470;1097;103016;-80
2021/07/23 03:31:22;;;;;;;20.70;8.37;;;;;;;18.13;63.58;99171.28;125878;1097;102922;-80
2021/07/23 03:33:55;;;;;;;18.03;8.40;;;;;;;18.15;63.77;99177.36;125528;1095;103019;-77
2021/07/23 03:36:24;;;;;;;17.17;8.50;;;;;;;18.15;63.76;99180.88;125490;1096;103156;-78
2021/07/23 03:38:52;;;;;;;19.50;9.60;;;;;;;18.17;63.38;99174.48;125513;1096;103101;-79
2021/07/23 03:41:20;;;;;;;19.27;9.50;;;;;;;18.19;63.90;99169.79;125454;1096;102983;-78
2021/07/23 03:43:49;;;;;;;19.47;9.13;;;;;;;18.19;63.88;99173.34;125460;1097;102942;-79
2021/07/23 03:46:17;;;;;;;21.70;8.63;;;;;;;18.20;63.48;99185.80;125460;1097;103100;-78
2021/07/23 03:48:45;;;;;;;20.20;8.73;;;;;;;18.20;63.94;99182.25;125433;1095;102919;-78
2021/07/23 03:51:14;;;;;;;19.43;9.03;;;;;;;18.19;63.59;99178.73;125394;1097;103015;-78
2021/07/23 03:53:47;;;;;;;;;;;;;;;18.20;64.04;99179.56;125492;1095;103011;-78
2021/07/23 03:56:15;;;;;;;19.27;8.10;;;;;;;18.20;63.60;99182.25;125469;1095;102920;-78
2021/07/23 03:58:44;;;;;;;19.00;9.15;;;;;;;18.20;63.67;99172.34;125708;1094;103023;-79
2021/07/23 04:01:17;;;;;;;19.33;9.37;;;;;;;18.21;64.01;99178.55;125442;1096;103007;-82
2021/07/23 04:03:46;;;;;;;20.47;9.17;;;;;;;18.22;63.99;99173.03;125508;1096;103137;-79
2021/07/23 04:06:14;;;;;;;19.23;9.00;;;;;;;18.23;63.64;99172.03;125446;1096;102920;-81
2021/07/23 04:08:48;;;;;;;20.00;9.30;;;;;;;18.22;63.88;99181.11;125444;1096;102915;-77
2021/07/23 04:11:17;;;;;;;18.70;9.75;;;;;;;18.23;64.12;99174.72;125417;1096;102940;-77
2021/07/23 04:13:47;;;;;;;20.10;8.83;;;;;;;18.24;64.24;99176.41;125468;1096;103036;-76
2021/07/23 04:16:20;;;;;;;19.47;8.50;;;;;;;18.25;63.88;99174.55;125486;1096;103100;-76
2021/07/23 04:18:53;;;;;;;21.07;8.70;;;;;;;18.26;64.04;99182.48;125419;1096;102936;-78
2021/07/23 04:21:25;;;;;;;22.07;10.23;;;;;;;18.28;64.03;99179.62;125529;1096;103015;-81
2021/07/23 04:23:53;;;;;;;25.33;11.27;;;;;;;18.28;63.92;99175.09;125392;1096;103406;-79
2021/07/23 04:26:21;;;;;;;20.83;9.87;;;;;;;18.29;64.04;99174.09;125574;1096;103100;-81
2021/07/23 04:28:50;;;;;;;28.60;10.50;;;;;;;18.31;64.24;99184.69;125432;1095;102994;-82
2021/07/23 04:31:20;;;;;;;21.00;9.93;;;;;;;18.29;64.53;99174.09;125608;1096;103023;-78
2021/07/23 04:34:01;;;;;;;21.73;9.30;;;;;;;18.31;64.21;99176.61;125438;1095;102949;-82
2021/07/23 04:36:32;;;;;;;20.93;9.33;;;;;;;18.34;64.64;99170.91;125980;1096;102945;-80
2021/07/23 04:39:03;;;;;;;21.17;8.97;;;;;;;18.37;64.74;99175.12;126137;1096;103000;-84
2021/07/23 04:41:36;;;;;;;24.50;9.73;;;;;;;18.40;64.48;99169.41;125544;1096;102930;-83
2021/07/23 04:44:04;;;;;;;22.63;9.60;;;;;;;18.42;64.63;99164.72;125596;1097;103057;-81
2021/07/23 04:46:33;;;;;;;22.40;9.97;;;;;;;18.42;64.24;99164.72;125577;1096;103071;-79
2021/07/23 04:49:01;;;;;;;21.67;9.70;;;;;;;18.43;64.66;99164.57;125591;1096;102917;-80
2021/07/23 04:51:34;;;;;;;;;;;;;;;18.44;64.76;99162.70;125637;1095;102959;-80
2021/07/23 04:54:03;;;;;;;21.33;9.27;;;;;;;18.45;64.61;99167.95;125444;1097;103000;-84
2021/07/23 04:56:31;;;;;;;21.10;10.43;;;;;;;18.50;64.86;99164.77;125387;1097;103183;-74
2021/07/23 04:59:00;;;;;;;21.77;10.07;;;;;;;18.54;64.67;99162.61;125498;1095;102980;-81
2021/07/23 05:01:28;;;;;;;23.77;10.87;;;;;;;18.59;64.49;99161.11;125443;1096;103023;-76
2021/07/23 05:04:00;;;;;;;24.70;10.50;;;;;;;18.63;64.51;99158.92;125486;1096;102949;-72
2021/07/23 05:06:30;;;;;;;21.60;9.83;;;;;;;18.69;64.64;99165.53;125461;1095;103017;-72
2021/07/23 05:08:59;;;;;;;21.47;9.77;;;;;;;18.74;64.57;99163.20;125437;1096;103089;-75
2021/07/23 05:11:27;;;;;;;23.67;10.13;;;;;;;18.77;64.53;99162.84;125446;1096;102926;-74
2021/07/23 05:13:59;;;;;;;23.67;9.63;;;;;;;18.83;64.51;99166.77;125481;1096;102998;-74
2021/07/23 05:16:31;;;;;;;;;;;;;;;18.87;64.88;99157.34;125524;1096;103009;-75
2021/07/23 05:19:01;;;;;;;19.53;9.23;;;;;;;18.90;64.68;99159.72;125470;1096;102939;-74
2021/07/23 05:21:29;;;;;;;20.70;9.10;;;;;;;18.96;64.67;99158.25;125402;1095;103481;-70
2021/07/23 05:24:03;;;;;;;20.27;9.20;;;;;;;19.01;64.85;99162.13;125520;1096;102945;-73
2021/07/23 05:26:41;;;;;;;22.10;9.80;;;;;;;19.07;64.67;99160.64;125433;1095;103013;-72
2021/07/23 05:29:11;;;;;;;22.10;9.65;;;;;;;19.13;64.92;99159.98;125460;1096;103031;-73
2021/07/23 05:31:40;;;;;;;22.43;9.10;;;;;;;19.20;64.85;99160.16;125458;1096;103486;-72
2021/07/23 05:34:10;;;;;;;23.93;10.53;;;;;;;19.25;64.76;99162.34;125459;1096;103133;-75
2021/07/23 05:36:43;;;;;;;19.73;9.57;;;;;;;19.27;65.09;99158.50;125508;1096;103681;-74
2021/07/23 05:39:11;;;;;;;21.83;10.60;;;;;;;19.33;64.79;99171.32;125454;1095;103095;-72
2021/07/23 05:41:40;;;;;;;21.17;10.00;;;;;;;19.39;64.74;99160.84;125514;1096;102932;-75
2021/07/23 05:44:08;;;;;;;20.97;9.37;;;;;;;19.43;64.88;99160.37;125500;1096;103000;-72
2021/07/23 05:46:36;;;;;;;21.50;10.40;;;;;;;19.48;64.59;99160.72;125441;1096;103070;-75
2021/07/23 05:49:06;;;;;;;24.05;10.95;;;;;;;19.54;64.77;99166.45;125473;1096;103532;-74
2021/07/23 05:51:38;;;;;;;21.93;10.10;;;;;;;19.59;64.80;99159.53;125361;1096;102934;-78
2021/07/23 05:54:08;;;;;;;24.70;9.87;;;;;;;19.63;64.84;99160.03;125656;1095;102925;-78
2021/07/23 05:56:36;;;;;;;20.83;9.67;;;;;;;19.68;64.65;99162.24;125544;1095;103004;-77
2021/07/23 05:59:05;;;;;;;21.43;9.70;;;;;;;19.73;65.01;99154.49;125484;1097;103079;-76
2021/07/23 06:01:33;;;;;;;24.17;10.23;;;;;;;19.80;64.67;99160.88;125624;1097;103041;-81
2021/07/23 06:04:01;;;;;;;23.15;10.65;;;;;;;19.84;64.80;99158.70;125466;1097;103044;-79
2021/07/23 06:06:35;;;;;;;24.17;10.63;;;;;;;19.88;65.11;99158.20;125594;1096;102935;-76
2021/07/23 06:09:13;;;;;;;22.40;9.97;;;;;;;19.91;64.62;99155.17;125585;1097;103189;-76
2021/07/23 06:11:46;;;;;;;22.43;10.23;;;;;;;19.96;64.68;99154.67;125419;1096;103154;-76
2021/07/23 06:14:17;;;;;;;19.95;8.90;;;;;;;20.00;64.89;99153.30;125455;1097;102964;-77
2021/07/23 06:16:45;;;;;;;21.40;10.13;;;;;;;20.04;64.75;99154.64;125461;1096;103103;-75
2021/07/23 06:19:13;;;;;;;25.07;10.37;;;;;;;20.08;64.92;99155.98;125507;1097;103103;-73
2021/07/23 06:21:46;;;;;;;21.50;9.53;;;;;;;20.14;64.78;99165.28;125480;1097;102924;-82
2021/07/23 06:24:16;;;;;;;22.70;9.97;;;;;;;20.17;64.43;99154.14;125521;1096;103527;-86
2021/07/23 06:26:45;;;;;;;18.43;8.67;;;;;;;20.21;64.52;99160.03;125643;1096;102943;-85
2021/07/23 06:29:14;;;;;;;21.73;9.80;;;;;;;20.25;64.77;99153.27;125518;1097;102945;-85
2021/07/23 06:31:42;;;;;;;23.10;10.00;;;;;;;20.28;64.85;99152.06;125493;1096;103034;-85
2021/07/23 06:34:10;;;;;;;19.00;8.83;;;;;;;20.32;64.40;99156.97;125620;1096;103041;-84
2021/07/23 06:36:39;;;;;;;22.27;9.23;;;;;;;20.34;64.69;99154.94;125527;1096;103066;-84
2021/07/23 06:39:07;;;;;;;18.00;8.40;;;;;;;20.37;64.78;99151.89;125528;1096;103000;-86
2021/07/23 06:41:35;;;;;;;19.03;9.30;;;;;;;20.43;64.82;99150.34;125548;1097;102922;-84
2021/07/23 06:44:04;;;;;;;19.53;9.23;;;;;;;20.48;64.81;99147.11;125657;1096;102950;-83
2021/07/23 06:46:32;;;;;;;19.53;8.67;;;;;;;20.52;64.59;99154.72;125659;1095;103028;-82
2021/07/23 06:49:01;;;;;;;19.13;8.97;;;;;;;20.58;64.47;99158.56;125666;1097;103132;-83
2021/07/23 06:51:29;;;;;;;21.83;8.73;;;;;;;20.62;64.46;99149.09;125617;1097;102916;-83
2021/07/23 06:53:59;;;;;;;20.67;9.17;;;;;;;20.68;64.39;99151.11;125582;1097;103007;-82
2021/07/23 06:56:27;;;;;;;18.60;8.20;;;;;;;20.72;64.41;99146.18;125531;1097;103000;-83
2021/07/23 06:58:56;;;;;;;19.90;8.37;;;;;;;20.80;64.76;99154.28;125539;1097;102990;-85
2021/07/23 07:01:25;;;;;;;34.33;9.80;;;;;;;20.88;64.39;99147.16;125512;1097;102918;-84
2021/07/23 07:03:53;;;;;;;22.60;8.50;;;;;;;20.92;64.19;99153.91;125773;1096;103023;-85
2021/07/23 07:06:26;;;;;;;20.67;8.47;;;;;;;20.97;64.52;99148.81;125946;1096;102998;-75
2021/07/23 07:08:55;;;;;;;26.03;9.03;;;;;;;21.06;64.25;99153.13;125652;1096;102914;-74
2021/07/23 07:11:23;;;;;;;26.43;9.87;;;;;;;21.15;64.47;99151.24;125558;1096;102997;-73
2021/07/23 07:13:56;;;;;;;25.53;9.73;;;;;;;21.25;64.46;99154.53;125362;1096;103026;-74
2021/07/23 07:16:24;;;;;;;26.17;10.33;;;;;;;21.34;64.41;99152.64;125491;1096;103023;-77
2021/07/23 07:18:53;;;;;;;25.27;9.97;;;;;;;21.44;64.25;99154.24;125499;1096;103017;-76
2021/07/23 07:21:24;;;;;;;24.37;9.80;;;;;;;21.53;64.20;99150.46;125561;1096;102991;-85
2021/07/23 07:23:52;;;;;;;23.60;9.33;;;;;;;21.63;64.34;99152.94;126214;1096;102973;-74
2021/07/23 07:26:21;;;;;;;20.70;8.67;;;;;;;21.74;64.24;99148.98;125551;1096;103067;-73
2021/07/23 07:28:49;;;;;;;18.43;8.13;;;;;;;21.83;64.23;99151.44;125430;1096;103006;-67
2021/07/23 07:31:17;;;;;;;18.20;8.40;;;;;;;21.93;64.36;99153.05;125516;1096;102920;-76
2021/07/23 07:33:50;;;;;;;20.10;8.00;;;;;;;22.03;63.93;99153.61;125538;1097;103007;-71
2021/07/23 07:36:19;;;;;;;18.77;7.47;;;;;;;22.08;64.22;99153.90;125521;1096;104427;-76
2021/07/23 07:38:53;;;;;;;20.90;8.87;;;;;;;22.15;64.19;99157.55;125493;1096;103100;-75
2021/07/23 07:41:21;;;;;;;20.70;8.60;;;;;;;22.19;64.02;99151.77;125509;1097;103026;-77
2021/07/23 07:43:49;;;;;;;22.47;8.47;;;;;;;22.25;63.95;99151.86;125503;1096;102945;-72
2021/07/23 07:46:23;;;;;;;19.25;8.20;;;;;;;22.35;63.88;99148.04;125507;1096;103001;-76
2021/07/23 07:48:56;;;;;;;17.20;7.37;;;;;;;22.42;63.80;99157.94;125446;1096;102918;-75
2021/07/23 07:51:25;;;;;;;18.80;8.00;;;;;;;22.47;63.65;99146.59;125464;1096;103060;-78
2021/07/23 07:53:53;;;;;;;18.20;7.60;;;;;;;22.53;63.45;99145.84;125458;1096;102907;-77
2021/07/23 07:56:26;;;;;;;;;;;;;;;22.58;63.38;99143.42;125508;1096;103108;-74
2021/07/23 07:58:54;;;;;;;14.83;6.60;;;;;;;22.62;63.49;99145.75;125504;1095;102916;-74
2021/07/23 08:01:23;;;;;;;19.13;6.50;;;;;;;22.67;63.10;99143.29;125528;1095;104431;-73
2021/07/23 08:03:56;;;;;;;17.03;6.80;;;;;;;22.73;63.01;99140.69;125420;1097;103095;-74
2021/07/23 08:06:27;;;;;;;19.60;6.67;;;;;;;22.82;63.33;99143.30;125491;1097;103094;-75
2021/07/23 08:09:08;;;;;;;15.83;7.40;;;;;;;22.93;63.18;99142.78;125481;1096;102920;-72
2021/07/23 08:11:42;;;;;;;21.67;7.13;;;;;;;23.09;63.08;99130.03;125498;1096;103521;-73
2021/07/23 08:14:11;;;;;;;15.37;6.77;;;;;;;23.25;62.81;99146.09;125498;1096;103094;-76
2021/07/23 08:16:40;;;;;;;17.47;6.87;;;;;;;23.44;62.67;99150.04;125461;1096;103032;-75
2021/07/23 08:19:15;;;;;;;13.73;6.33;;;;;;;23.68;62.32;99137.12;125499;1096;102951;-76
2021/07/23 08:21:43;;;;;;;17.13;6.80;;;;;;;23.97;62.14;99139.86;125464;1096;103060;-75
2021/07/23 08:24:13;;;;;;;15.43;6.30;;;;;;;24.26;62.48;99146.14;125499;1096;102934;-74
2021/07/23 08:26:41;;;;;;;15.77;6.20;;;;;;;24.66;62.06;99139.04;125521;1096;102979;-78
2021/07/23 08:29:14;;;;;;;16.77;7.17;;;;;;;25.12;61.64;99144.89;125518;1096;102919;-77
2021/07/23 08:31:43;;;;;;;13.87;5.93;;;;;;;25.46;62.07;99136.84;125453;1096;103018;-78
2021/07/23 08:34:16;;;;;;;14.27;6.00;;;;;;;25.77;61.54;99143.56;125464;1095;103029;-77
2021/07/23 08:36:49;;;;;;;15.33;5.47;;;;;;;26.11;61.47;99144.38;125501;1096;103070;-77
2021/07/23 08:39:17;;;;;;;15.50;6.30;;;;;;;26.37;61.17;99140.80;125457;1096;103076;-75
2021/07/23 08:41:45;;;;;;;13.43;5.90;;;;;;;26.58;61.14;99134.24;125458;1096;103074;-75
2021/07/23 08:44:18;;;;;;;17.47;6.37;;;;;;;26.81;61.10;99138.41;125542;1096;103017;-76
2021/07/23 08:46:47;;;;;;;14.23;5.90;;;;;;;26.99;60.59;99132.23;125490;1097;103173;-76
2021/07/23 08:49:20;;;;;;;16.70;6.23;;;;;;;27.24;60.59;99133.36;125487;1097;102941;-76
2021/07/23 08:51:57;;;;;;;12.73;5.77;;;;;;;27.37;60.36;99133.25;125444;1096;103004;-75
2021/07/23 08:54:25;;;;;;;13.87;5.50;;;;;;;27.47;59.72;99135.52;125436;1097;103082;-75
2021/07/23 08:56:54;;;;;;;11.00;5.23;;;;;;;27.57;59.62;99140.52;125523;1097;102938;-78
2021/07/23 08:59:22;;;;;;;12.95;5.80;;;;;;;27.69;59.37;99138.75;125569;1097;102927;-76
2021/07/23 09:02:06;;;;;;;13.80;5.87;;;;;;;27.70;59.41;99132.22;125499;1097;103003;-73
2021/07/23 09:04:40;;;;;;;17.53;6.40;;;;;;;27.71;58.87;99135.78;125483;1097;102945;-76
2021/07/23 09:07:15;;;;;;;12.10;5.27;;;;;;;27.63;58.81;99139.63;125433;1097;103050;-80
2021/07/23 09:10:05;;;;;;;14.87;5.63;;;;;;;27.78;58.59;99126.46;125454;1096;102954;-77
2021/07/23 09:12:52;;;;;;;11.87;5.13;;;;;;;27.78;58.35;99131.11;125387;1097;102956;-79
2021/07/23 09:15:47;;;;;;;10.87;5.53;;;;;;;27.82;58.07;99129.60;125458;1096;103015;-79
2021/07/23 09:18:33;;;;;;;15.15;5.70;;;;;;;27.87;57.84;99129.77;125434;1097;103071;-79
2021/07/23 09:21:09;;;;;;;13.13;5.10;;;;;;;27.89;57.36;99137.73;125433;1097;103141;-83
2021/07/23 09:23:41;;;;;;;9.80;4.90;;;;;;;27.89;56.98;99135.00;125754;1096;102935;-81
2021/07/23 09:26:09;;;;;;;13.83;5.53;;;;;;;28.00;56.90;99122.48;125679;1096;102974;-81
2021/07/23 09:28:46;;;;;;;12.63;4.70;;;;;;;28.05;56.82;99128.13;125578;1095;103078;-81
2021/07/23 09:31:27;;;;;;;11.50;5.20;;;;;;;28.18;56.65;99130.77;125498;1096;103017;-75
2021/07/23 09:34:05;;;;;;;12.83;5.30;;;;;;;28.16;55.91;99130.16;125477;1097;103582;-78
2021/07/23 09:36:38;;;;;;;13.87;5.13;;;;;;;28.17;55.96;99123.63;125494;1096;103018;-81
2021/07/23 09:39:26;;;;;;;12.47;5.03;;;;;;;28.18;55.80;99114.36;125421;1097;103003;-79
2021/07/23 09:42:04;;;;;;;9.30;4.77;;;;;;;28.26;55.67;99115.95;125486;1097;103418;-78
2021/07/23 09:44:32;;;;;;;11.35;4.80;;;;;;;28.29;55.54;99117.41;125447;1095;103119;-76
2021/07/23 09:47:28;;;;;;;8.67;4.20;;;;;;;28.28;55.14;99116.56;125461;1096;103076;-75
2021/07/23 09:50:02;;;;;;;10.10;4.93;;;;;;;28.36;54.90;99113.53;125486;1097;103005;-76
2021/07/23 09:52:36;;;;;;;10.43;4.47;;;;;;;28.53;54.65;99110.17;125434;1097;103473;-76
2021/07/23 09:55:09;;;;;;;9.60;4.40;;;;;;;28.74;54.36;99105.30;125467;1096;102912;-76
2021/07/23 09:57:47;;;;;;;11.35;4.85;;;;;;;28.90;53.92;99103.86;125429;1095;104483;-72
2021/07/23 10:00:23;;;;;;;10.60;4.43;;;;;;;29.04;54.04;99102.63;125312;1096;103103;-74
2021/07/23 10:02:53;;;;;;;9.53;4.00;;;;;;;29.15;53.55;99100.98;125438;1096;102948;-74
2021/07/23 10:05:27;;;;;;;10.87;4.80;;;;;;;29.20;53.43;99103.86;125359;1096;103199;-74
2021/07/23 10:08:01;;;;;;;14.63;5.27;;;;;;;29.25;53.06;99092.20;125418;1096;102917;-74
2021/07/23 10:10:30;;;;;;;9.70;4.37;;;;;;;29.16;53.20;99094.44;125492;1096;102924;-74
2021/07/23 10:13:01;;;;;;;13.03;4.90;;;;;;;29.22;52.38;99084.45;125382;1096;103048;-76
2021/07/23 10:15:31;;;;;;;13.40;5.73;;;;;;;29.26;52.67;99082.91;125406;1096;103042;-75
2021/07/23 10:18:01;;;;;;;13.07;4.90;;;;;;;29.29;52.23;99084.37;125414;1096;103130;-74
2021/07/23 10:20:30;;;;;;;11.80;4.25;;;;;;;29.26;52.25;99080.17;125554;1096;102967;-75
2021/07/23 10:22:59;;;;;;;11.13;4.67;;;;;;;29.21;51.59;99080.89;125508;1097;103090;-71
2021/07/23 10:25:31;;;;;;;15.17;5.07;;;;;;;29.18;51.09;99078.61;125367;1096;103063;-77
2021/07/23 10:28:00;;;;;;;14.30;4.57;;;;;;;29.07;51.25;99068.45;125372;1097;103042;-73
2021/07/23 10:30:34;;;;;;;10.70;4.90;;;;;;;28.95;50.96;99079.37;125452;1096;102930;-73
2021/07/23 10:33:05;;;;;;;12.80;5.47;;;;;;;28.82;50.36;99072.19;125409;1096;102922;-74
2021/07/23 10:35:35;;;;;;;9.70;4.40;;;;;;;28.64;50.16;99075.76;125433;1096;103549;-79
2021/07/23 10:38:05;;;;;;;11.07;4.73;;;;;;;28.54;50.41;99065.34;125382;1095;103079;-79
2021/07/23 10:40:36;;;;;;;11.07;4.80;;;;;;;28.50;49.72;99059.50;125384;1097;103005;-80
2021/07/23 10:43:41;;;;;;;10.73;4.67;;;;;;;28.48;50.25;99061.63;125337;1096;104123;-80
2021/07/23 10:46:09;;;;;;;12.47;5.57;;;;;;;28.42;49.81;99057.07;124613;1099;103252;-78
2021/07/23 10:48:49;;;;;;;12.30;5.30;;;;;;;28.41;49.38;99060.05;125260;1096;102944;-79
2021/07/23 10:51:52;;;;;;;11.20;4.87;;;;;;;28.33;49.24;99069.38;125489;1096;103169;-77
2021/07/23 10:54:23;;;;;;;10.33;4.77;;;;;;;28.21;49.22;99061.95;125477;1096;103396;-78
2021/07/23 10:57:01;;;;;;;16.77;7.47;;;;;;;28.20;49.24;99060.28;125444;1096;103071;-80
2021/07/23 10:59:40;;;;;;;16.10;7.87;;;;;;;28.18;49.17;99054.20;125480;1097;103002;-77
2021/07/23 11:02:31;;;;;;;9.50;4.80;;;;;;;28.12;48.73;99057.84;125413;1096;103019;-77
2021/07/23 11:05:09;;;;;;;13.17;5.40;;;;;;;28.04;48.74;99058.11;125440;1096;103069;-78
2021/07/23 11:07:38;;;;;;;15.77;5.10;;;;;;;27.99;48.46;99052.48;125578;1096;102939;-81
2021/07/23 11:10:10;;;;;;;17.00;5.97;;;;;;;27.95;48.35;99052.11;125486;1097;103393;-75
2021/07/23 11:12:47;;;;;;;13.33;4.83;;;;;;;27.86;48.49;99051.58;125526;1096;102943;-74
2021/07/23 11:15:18;;;;;;;12.60;5.30;;;;;;;27.73;48.23;99051.69;125536;1096;102983;-72
2021/07/23 11:17:56;;;;;;;11.40;4.53;;;;;;;27.64;48.21;99043.78;125388;1098;103124;-73
2021/07/23 11:20:41;;;;;;;14.63;6.33;;;;;;;27.61;47.88;99052.41;125429;1097;102978;-71
2021/07/23 11:23:12;;;;;;;10.67;4.93;;;;;;;27.60;47.91;99055.39;125374;1096;102952;-71
2021/07/23 11:25:55;;;;;;;13.20;5.58;;;;;;;27.42;47.80;99046.03;125478;1096;103015;-73
2021/07/23 11:28:25;;;;;;;10.40;5.30;;;;;;;27.30;47.35;99045.11;125506;1095;102976;-73
2021/07/23 11:30:56;;;;;;;12.87;4.87;;;;;;;27.21;47.72;99044.52;125552;1096;103089;-71